LiveATC.Net - Listen to live air traffic control over the Internet! Contact LiveATC.net for advertising information


ICAO: KHWV  IATA: HWV   Airport: Brookhaven Airport
City: Shirley   State/Province: New York
Country: United States   Continent: North America
KHWV METAR Weather: KHWV 270056Z AUTO 02012G25KT 1 1/4SM -SN BR OVC010 M03/M04 A2978 RMK AO2 SLP086 P0001 T10281044 TSNO
KHWV Flight Activity (FlightAware)
KHWV Airport Info   (AirNav) (iFlightPlanner)
KHWV CTAF
Feed Status: DOWN
Last heard on: 2014-12-31 13:06:02 (26 days 12 hours 3 minutes ago)
KHWV CTAF Audio Archives
FacilityFrequency
Brookhaven CTAF122.800
Emergency/Guard121.500

Sponsored by Stephen Trapp and Long Islsnd Soaring Association (LISA)

NOTICE

Unauthorized use prohibited. See LiveATC.net Terms of Service


Find LiveATC Audio Streams


Airport/ARTCC Code

Frequency
(e.g., 124.400, 128.75)
Site-wide search

Browse LiveATC Feeds
LiveATC Coverage Map
Top 50 LiveATC Feeds
Bad Weather Areas

LiveATC FAQ
Offer a LiveATC Feed
Contact LiveATC.net
Press Inquiries

LiveATC on iPhone
LiveATC on Android

LiveATC Mobile
(Mobile browser)

ATC Audio Archives
Interesting Recordings

LiveATC Forums


Home Page
About LiveATC.net
Make a Donation
LiveATC Bookstore

Terms of Use
Privacy Policy

ATC/Radar Sites
U.S. ARTCC Freqs
Canadian Air Freqs

AIRMETs/SIGMETs

FAA Airport Status
Nat'l Airspace Status
Arrival Demand Charts


Server Software By:
Icecast.org
Liquidsoap

Please make a donation to help us keep growing!